This is the latest recevied weather packets stored in our database for station/object EB1GOD-1. If no packets are shown the sender has not sent any weather packets the latest 10 day(s).
| Time | Temp. | Humidity | Pressure | Rain* | Wind** | Luminosity | Snow |
|---|---|---|---|---|---|---|---|
| 1778020432 | 12.78° C | 87% | 1154.7 hPa | - | - | - | - |
| 1778019532 | 12.78° C | 85% | 1154.7 hPa | - | - | - | - |
| 1778018632 | 13.33° C | 82% | 1154.8 hPa | - | - | - | - |
| 1778017732 | 13.89° C | 80% | 1154.8 hPa | - | - | - | - |
| 1778016832 | 13.33° C | 80% | 1154.9 hPa | - | - | - | - |
| 1778015932 | 13.89° C | 80% | 1154.9 hPa | - | - | - | - |
| 1778015032 | 13.33° C | 81% | 1154.8 hPa | - | - | - | - |
| 1778014132 | 13.33° C | 82% | 1154.7 hPa | - | - | - | - |
| 1778013232 | 12.78° C | 83% | 1154.7 hPa | - | - | - | - |
| 1778012331 | 12.22° C | 85% | 1154.5 hPa | - | - | - | - |
| 1778011432 | 13.89° C | 79% | 1154.3 hPa | - | - | - | - |
| 1778010531 | 13.33° C | 80% | 1154.2 hPa | - | - | - | - |
| 1778009632 | 13.33° C | 79% | 1154.1 hPa | - | - | - | - |
| 1778008731 | 15° C | 70% | 1154 hPa | - | - | - | - |
| 1778007831 | 15° C | 69% | 1153.9 hPa | - | - | - | - |
| 1778006931 | 14.44° C | 69% | 1153.9 hPa | - | - | - | - |
| 1778006031 | 15° C | 68% | 1153.9 hPa | - | - | - | - |
| 1778005131 | 14.44° C | 68% | 1153.8 hPa | - | - | - | - |
| 1778004231 | 15° C | 68% | 1153.8 hPa | - | - | - | - |
| 1778003331 | 16.67° C | 65% | 1153.8 hPa | - | - | - | - |
| 1778002431 | 15.56° C | 66% | 1153.8 hPa | - | - | - | - |
| 1778001531 | 15.56° C | 65% | 1153.7 hPa | - | - | - | - |
| 1778000630 | 16.11° C | 65% | 1153.8 hPa | - | - | - | - |
| 1777999730 | 16.11° C | 65% | 1153.7 hPa | - | - | - | - |
| 1777998830 | 15° C | 69% | 1153.6 hPa | - | - | - | - |
* Rain since midnight (hover to see other rain measurements)
** Current wind speed in m/s (hover to see current wind gust speed)